createdAt,value
2018-06-16T00:04:01.742Z,17.20
2018-06-16T00:24:37.245Z,16.90
2018-06-16T00:45:20.282Z,16.79
2018-06-16T01:05:52.479Z,16.35
2018-06-16T01:26:33.894Z,16.17
2018-06-16T01:47:11.931Z,16.06
2018-06-16T02:07:43.208Z,16.14
2018-06-16T02:28:22.481Z,15.96
2018-06-16T02:49:05.734Z,15.97
2018-06-16T03:09:37.936Z,16.05
2018-06-16T03:30:06.144Z,15.97
2018-06-16T03:50:47.693Z,15.58
2018-06-16T04:11:26.519Z,15.76
2018-06-16T04:32:07.012Z,16.05
2018-06-16T04:52:33.988Z,16.48
2018-06-16T05:13:11.412Z,16.78
2018-06-16T05:33:56.822Z,17.03
2018-06-16T05:54:33.940Z,17.47
2018-06-16T06:33:09.959Z,18.43
2018-06-16T06:53:50.763Z,18.90
2018-06-16T07:14:29.412Z,19.57
2018-06-16T07:35:12.718Z,20.13
2018-06-16T07:55:51.937Z,20.51
2018-06-16T08:16:23.217Z,20.87
2018-06-16T08:37:02.480Z,21.69
2018-06-16T08:57:41.749Z,22.02
2018-06-16T09:18:24.091Z,22.38
2018-06-16T09:39:01.210Z,22.53
2018-06-16T09:59:37.708Z,22.74
2018-06-16T10:20:20.113Z,23.33
2018-06-16T10:40:53.167Z,23.46
2018-06-16T11:01:45.032Z,23.89
2018-06-16T11:22:33.819Z,24.32
2018-06-16T11:43:13.083Z,24.44
2018-06-16T12:03:43.137Z,24.45
2018-06-16T12:24:17.484Z,24.51
2018-06-16T12:44:53.048Z,23.98
2018-06-16T13:05:24.958Z,24.04
2018-06-16T13:26:07.298Z,24.02
2018-06-16T13:46:43.497Z,25.53
2018-06-16T14:07:22.804Z,25.17
2018-06-16T14:27:54.958Z,26.34
2018-06-16T14:48:22.256Z,27.02
2018-06-16T15:09:00.279Z,27.91
2018-06-16T15:29:29.411Z,29.30
2018-06-16T15:49:57.621Z,28.26
2018-06-16T16:10:31.965Z,27.70
2018-06-16T16:31:08.159Z,26.80
2018-06-16T16:51:42.274Z,28.13
2018-06-16T17:12:08.569Z,29.82
2018-06-16T17:32:44.764Z,28.41
2018-06-16T17:53:13.147Z,26.03
2018-06-16T18:13:50.085Z,24.93
2018-06-16T18:34:27.647Z,23.89
2018-06-16T18:55:06.774Z,23.36
2018-06-16T19:15:43.891Z,22.33
2018-06-16T19:36:22.237Z,21.69
2018-06-16T19:56:59.350Z,21.00
2018-06-16T20:17:29.890Z,20.67
2018-06-16T20:38:12.968Z,20.26
2018-06-16T20:58:56.227Z,19.83
2018-06-16T21:19:40.721Z,19.19
2018-06-16T21:40:21.827Z,18.80
2018-06-16T22:01:01.093Z,18.50
2018-06-16T22:21:44.672Z,18.16
2018-06-16T22:42:26.691Z,17.76
2018-06-16T23:03:06.888Z,17.52
2018-06-16T23:23:43.074Z,17.09
2018-06-16T23:44:22.646Z,16.84
